CCA2 weather

New Germany Seaplane Base
Nova Scotia, Canada

Public forecast

Using degrees Celsius for public forecast. Weather courtesy of forecast.io.

METAR (pilot weather report)

Closest report is CFB Greenwood, 27.0 nm (50.1 km) NNW. Retrieved 2019/08/21 10:00 UTC (58 minutes ago):

CYZX 211000Z 22002KT 15SM BCFG SKC 13/12 A3007 RMK FG BANK N VIS 1/2 SLP184

TAF (pilot weather forecast)

Closest forecast is CFB Greenwood, 27.0 nm (50.1 km) NNW. Retrieved 2019/08/21 06:33 UTC (4 hours ago):

TAF CYZX 210530Z 2106/2206 VRB03KT P6SM SKC BECMG 2114/2115 25007KT FM211700 29010KT P6SM SCT260 FM212200 24006KT P6SM SCT120 BKN240 FM220300 23005KT P6SM BKN080 OVC200 FM220500 24008KT 6SM -SHRA BR SCT015 OVC030 RMK NXT FCST BY 211200Z